createdAt,value
2023-02-12T00:00:30.983Z,19.40
2023-02-12T00:03:35.070Z,20.33
2023-02-12T00:06:39.337Z,20.60
2023-02-12T00:09:42.404Z,22.27
2023-02-12T00:12:45.305Z,21.60
2023-02-12T00:15:48.271Z,19.30
2023-02-12T00:18:54.862Z,20.67
2023-02-12T00:21:57.629Z,19.00
2023-02-12T00:25:00.330Z,19.03
2023-02-12T00:28:03.806Z,18.83
2023-02-12T00:31:08.585Z,18.23
2023-02-12T00:34:12.709Z,18.80
2023-02-12T00:37:16.056Z,18.33
2023-02-12T00:40:19.065Z,18.37
2023-02-12T00:43:21.904Z,17.10
2023-02-12T00:46:24.953Z,16.70
2023-02-12T00:49:29.362Z,16.00
2023-02-12T00:52:32.133Z,16.37
2023-02-12T00:55:35.223Z,16.10
2023-02-12T00:58:37.936Z,16.47
2023-02-12T01:01:41.253Z,16.20
2023-02-12T01:04:46.095Z,17.43
2023-02-12T01:07:50.733Z,16.83
2023-02-12T01:10:59.221Z,17.13
2023-02-12T01:14:02.295Z,18.57
2023-02-12T01:17:05.028Z,19.80
2023-02-12T01:20:12.454Z,20.27
2023-02-12T01:23:15.165Z,20.50
2023-02-12T01:26:19.826Z,20.27
2023-02-12T01:29:22.558Z,19.40
2023-02-12T01:32:25.366Z,20.23
2023-02-12T01:35:29.427Z,18.93
2023-02-12T01:38:32.406Z,18.27
2023-02-12T01:41:37.582Z,18.03
2023-02-12T01:44:44.963Z,19.83
2023-02-12T01:47:47.830Z,18.30
2023-02-12T01:50:54.184Z,17.57
2023-02-12T01:54:00.215Z,18.97
2023-02-12T01:57:06.025Z,18.03
2023-02-12T02:00:12.421Z,18.07
2023-02-12T02:03:15.472Z,18.03
2023-02-12T02:06:23.678Z,18.33
2023-02-12T02:09:27.132Z,18.33
2023-02-12T02:12:49.507Z,19.97
2023-02-12T02:15:58.447Z,20.70
2023-02-12T02:19:09.106Z,18.63
2023-02-12T02:22:22.762Z,17.87
2023-02-12T02:25:58.107Z,18.77
2023-02-12T02:29:15.450Z,16.87
2023-02-12T02:32:25.710Z,16.73
2023-02-12T02:35:33.454Z,15.37
2023-02-12T02:38:43.357Z,15.60
2023-02-12T02:41:51.095Z,16.53
2023-02-12T02:44:55.854Z,16.10
2023-02-12T02:48:05.805Z,16.40
2023-02-12T02:51:13.071Z,15.90
2023-02-12T02:54:21.429Z,15.57
2023-02-12T02:57:29.283Z,15.47
2023-02-12T03:00:38.773Z,15.07
2023-02-12T03:03:50.248Z,14.00
2023-02-12T03:06:57.445Z,14.50
2023-02-12T03:10:03.364Z,16.00
2023-02-12T03:13:10.282Z,15.47
2023-02-12T03:16:17.982Z,14.87
2023-02-12T03:19:26.026Z,14.23
2023-02-12T03:22:32.607Z,14.73
2023-02-12T03:25:39.314Z,13.80
2023-02-12T03:28:42.244Z,14.50
2023-02-12T03:31:56.797Z,14.97
2023-02-12T03:35:13.531Z,13.70
2023-02-12T03:38:22.970Z,13.23
2023-02-12T03:41:32.140Z,12.97
2023-02-12T03:44:48.869Z,13.33
2023-02-12T03:48:02.333Z,13.43
2023-02-12T03:51:16.022Z,13.53
2023-02-12T03:54:21.380Z,13.13
2023-02-12T03:57:30.658Z,14.60
2023-02-12T04:00:33.551Z,14.47
2023-02-12T04:03:36.419Z,13.43
2023-02-12T04:06:41.296Z,13.40
2023-02-12T04:09:44.537Z,12.73
2023-02-12T04:12:55.818Z,13.33
2023-02-12T04:16:08.967Z,13.77
2023-02-12T04:19:15.680Z,13.50
2023-02-12T04:22:36.147Z,13.57
2023-02-12T04:25:51.774Z,13.20
2023-02-12T04:29:09.215Z,13.60
2023-02-12T04:32:17.460Z,14.07
2023-02-12T04:35:25.306Z,14.27
2023-02-12T04:38:34.011Z,15.40
2023-02-12T04:41:36.853Z,16.73
2023-02-12T04:44:41.161Z,18.43
2023-02-12T04:47:43.956Z,17.00
2023-02-12T04:50:46.716Z,13.83
2023-02-12T04:53:51.061Z,13.40
2023-02-12T04:56:53.828Z,14.23
2023-02-12T04:59:56.568Z,12.70
2023-02-12T05:02:59.571Z,12.17
2023-02-12T05:06:04.458Z,12.13
2023-02-12T05:09:09.781Z,12.87
2023-02-12T05:12:12.501Z,12.47
2023-02-12T05:15:15.396Z,12.43
2023-02-12T05:18:18.085Z,12.40
2023-02-12T05:21:20.759Z,11.07
2023-02-12T05:24:24.921Z,11.20
2023-02-12T05:27:27.587Z,11.33
2023-02-12T05:30:30.388Z,10.87
2023-02-12T05:33:33.566Z,11.13
2023-02-12T05:36:36.418Z,11.17
2023-02-12T05:39:40.746Z,11.20
2023-02-12T05:42:43.453Z,11.17
2023-02-12T05:45:46.111Z,10.97
2023-02-12T05:48:49.060Z,10.97
2023-02-12T05:51:51.869Z,11.57
2023-02-12T05:54:55.917Z,11.87
2023-02-12T05:57:58.608Z,11.70
2023-02-12T06:01:01.293Z,11.47
2023-02-12T06:04:05.743Z,11.63
2023-02-12T06:07:08.450Z,11.83
2023-02-12T06:10:12.891Z,12.93
2023-02-12T06:13:15.554Z,11.77
2023-02-12T06:16:21.020Z,12.20
2023-02-12T06:19:24.417Z,12.23
2023-02-12T06:22:28.482Z,11.60
2023-02-12T06:25:32.619Z,13.40
2023-02-12T06:28:35.734Z,15.23
2023-02-12T06:31:39.253Z,16.83
2023-02-12T06:34:42.304Z,16.27
2023-02-12T06:37:45.141Z,18.23
2023-02-12T06:40:52.020Z,24.57
2023-02-12T06:43:54.798Z,17.87
2023-02-12T06:46:58.773Z,15.43
2023-02-12T06:50:01.729Z,14.53
2023-02-12T06:53:04.499Z,13.00
2023-02-12T06:56:11.457Z,12.30
2023-02-12T06:59:16.227Z,12.07
2023-02-12T07:02:18.957Z,11.77
2023-02-12T07:05:21.833Z,11.33
2023-02-12T07:08:24.630Z,12.07
2023-02-12T07:11:31.126Z,11.27
2023-02-12T07:14:33.887Z,11.57
2023-02-12T07:17:36.715Z,11.73
2023-02-12T07:20:39.546Z,11.30
2023-02-12T07:23:42.654Z,11.70
2023-02-12T07:26:46.793Z,13.07
2023-02-12T07:29:49.518Z,12.30
2023-02-12T07:32:52.165Z,13.47
2023-02-12T07:35:55.110Z,13.93
2023-02-12T07:38:59.285Z,14.53
2023-02-12T07:42:03.565Z,15.23
2023-02-12T07:45:07.741Z,13.67
2023-02-12T07:48:10.603Z,11.43
2023-02-12T07:51:16.048Z,11.87
2023-02-12T07:54:18.890Z,11.23
2023-02-12T07:57:22.952Z,10.97
2023-02-12T08:00:25.822Z,11.57
2023-02-12T08:03:29.647Z,11.20
2023-02-12T08:06:34.241Z,10.70
2023-02-12T08:09:37.012Z,10.23
2023-02-12T08:12:41.024Z,10.90
2023-02-12T08:15:43.694Z,11.10
2023-02-12T08:18:46.921Z,11.63
2023-02-12T08:21:50.782Z,15.53
2023-02-12T08:24:53.515Z,16.50
2023-02-12T08:27:57.676Z,16.33
2023-02-12T08:31:02.214Z,15.63
2023-02-12T08:34:05.955Z,14.23
2023-02-12T08:37:08.694Z,16.00
2023-02-12T08:40:13.854Z,17.87
2023-02-12T08:43:17.925Z,17.33
2023-02-12T08:46:23.423Z,15.07
2023-02-12T08:49:28.673Z,14.20
2023-02-12T08:52:31.347Z,14.13
2023-02-12T08:55:34.150Z,13.93
2023-02-12T08:58:38.996Z,13.10
2023-02-12T09:01:42.833Z,12.10
2023-02-12T09:04:45.738Z,13.20
2023-02-12T09:07:49.277Z,13.07
2023-02-12T09:10:51.997Z,18.67
2023-02-12T09:13:56.064Z,14.20
2023-02-12T09:16:58.747Z,14.30
2023-02-12T09:20:02.678Z,12.83
2023-02-12T09:23:05.859Z,13.53
2023-02-12T09:26:10.780Z,14.57
2023-02-12T09:29:14.930Z,13.97
2023-02-12T09:32:17.663Z,13.93
2023-02-12T09:35:20.582Z,13.83
2023-02-12T09:38:23.311Z,13.87
2023-02-12T09:41:45.382Z,14.70
2023-02-12T09:44:57.644Z,14.73
2023-02-12T09:48:13.645Z,15.73
2023-02-12T09:51:16.551Z,15.33
2023-02-12T09:54:22.103Z,15.27
2023-02-12T09:57:29.458Z,14.77
2023-02-12T10:00:33.782Z,15.90
2023-02-12T10:03:36.595Z,16.60
2023-02-12T10:06:50.678Z,15.77
2023-02-12T10:10:09.867Z,15.13
2023-02-12T10:13:25.132Z,15.90
2023-02-12T10:16:43.916Z,17.50
2023-02-12T10:20:19.641Z,16.47
2023-02-12T10:24:00.827Z,16.70
2023-02-12T10:27:11.864Z,11.57
2023-02-12T10:30:22.374Z,14.00
2023-02-12T10:33:32.867Z,17.63
2023-02-12T10:36:43.176Z,16.50
2023-02-12T10:39:51.605Z,18.70
2023-02-12T10:42:54.711Z,18.10
2023-02-12T10:45:58.178Z,17.37
2023-02-12T10:49:03.462Z,18.20
2023-02-12T10:52:14.980Z,18.53
2023-02-12T10:55:36.820Z,17.73
2023-02-12T10:58:41.865Z,18.50
2023-02-12T11:01:48.527Z,17.13
2023-02-12T11:04:54.301Z,17.57
2023-02-12T11:07:57.576Z,17.90
2023-02-12T11:11:11.151Z,15.53
2023-02-12T11:14:20.553Z,25.80
2023-02-12T11:17:29.758Z,17.00
2023-02-12T11:20:41.120Z,15.20
2023-02-12T11:23:45.299Z,15.17
2023-02-12T11:26:48.034Z,17.53
2023-02-12T11:30:14.186Z,17.93
2023-02-12T11:33:22.822Z,18.80
2023-02-12T11:36:29.772Z,17.83
2023-02-12T11:39:39.490Z,17.70
2023-02-12T11:42:43.469Z,16.97
2023-02-12T11:45:49.748Z,15.60
2023-02-12T11:48:54.341Z,14.67
2023-02-12T11:52:01.236Z,15.70
2023-02-12T11:55:07.859Z,12.13
2023-02-12T11:58:17.778Z,10.93
2023-02-12T12:01:23.619Z,14.03
2023-02-12T12:04:31.734Z,7.73
2023-02-12T12:07:40.080Z,8.33
2023-02-12T12:10:48.302Z,9.30
2023-02-12T12:13:58.669Z,8.00
2023-02-12T12:17:24.287Z,7.27
2023-02-12T12:20:32.042Z,11.57
2023-02-12T12:23:41.291Z,9.87
2023-02-12T12:26:50.231Z,11.17
2023-02-12T12:30:06.693Z,20.90
2023-02-12T12:33:18.360Z,21.83
2023-02-12T12:36:51.861Z,9.10
2023-02-12T12:40:09.111Z,8.10
2023-02-12T12:43:19.695Z,7.60
2023-02-12T12:46:47.851Z,9.73
2023-02-12T12:50:18.830Z,9.90
2023-02-12T12:53:35.947Z,7.40
2023-02-12T12:56:59.429Z,7.73
2023-02-12T13:00:21.126Z,8.17
2023-02-12T13:03:40.784Z,16.77
2023-02-12T13:06:54.416Z,18.90
2023-02-12T13:10:20.705Z,7.93
2023-02-12T13:13:34.008Z,7.73
2023-02-12T13:16:41.630Z,7.93
2023-02-12T13:19:54.369Z,8.03
2023-02-12T13:23:02.186Z,9.23
2023-02-12T13:26:12.664Z,14.13
2023-02-12T13:29:21.880Z,9.87
2023-02-12T13:32:29.609Z,8.83
2023-02-12T13:35:35.162Z,17.63
2023-02-12T13:38:41.465Z,8.43
2023-02-12T13:41:57.462Z,7.97
2023-02-12T13:45:18.239Z,7.80
2023-02-12T13:48:36.876Z,7.93
2023-02-12T13:51:44.985Z,7.47
2023-02-12T13:54:58.083Z,7.23
2023-02-12T13:58:40.799Z,11.10
2023-02-12T14:01:49.324Z,8.50
2023-02-12T14:04:57.193Z,9.87
2023-02-12T14:08:05.563Z,8.57
2023-02-12T14:11:10.524Z,12.60
2023-02-12T14:14:13.700Z,6.50
2023-02-12T14:17:44.262Z,7.60
2023-02-12T14:20:46.978Z,10.10
2023-02-12T14:23:50.762Z,8.87
2023-02-12T14:26:54.127Z,10.10
2023-02-12T14:30:26.992Z,7.20
2023-02-12T14:33:31.122Z,8.83
2023-02-12T14:36:40.790Z,6.60
2023-02-12T14:39:43.661Z,7.60
2023-02-12T14:42:56.863Z,6.90
2023-02-12T14:46:20.973Z,7.13
2023-02-12T14:49:28.205Z,8.67
2023-02-12T14:52:33.492Z,8.70
2023-02-12T14:55:36.689Z,8.87
2023-02-12T14:58:40.894Z,8.57
2023-02-12T15:01:44.434Z,8.33
2023-02-12T15:04:49.663Z,8.00
2023-02-12T15:07:56.165Z,8.17
2023-02-12T15:11:07.766Z,7.73
2023-02-12T15:14:17.686Z,11.00
2023-02-12T15:17:23.254Z,10.07
2023-02-12T15:20:35.715Z,7.73
2023-02-12T15:23:41.394Z,7.70
2023-02-12T15:26:48.253Z,8.37
2023-02-12T15:29:53.593Z,8.47
2023-02-12T15:32:57.754Z,7.77
2023-02-12T15:36:02.878Z,7.10
2023-02-12T15:39:09.713Z,7.27
2023-02-12T15:42:26.818Z,7.60
2023-02-12T15:45:30.990Z,7.03
2023-02-12T15:48:35.947Z,7.07
2023-02-12T15:51:42.237Z,7.30
2023-02-12T15:54:46.112Z,7.67
2023-02-12T15:57:51.457Z,7.67
2023-02-12T16:00:56.980Z,7.27
2023-02-12T16:04:03.320Z,7.93
2023-02-12T16:07:09.122Z,8.70
2023-02-12T16:10:15.716Z,9.57
2023-02-12T16:13:21.922Z,12.27
2023-02-12T16:16:28.086Z,8.70
2023-02-12T16:19:33.031Z,9.87
2023-02-12T16:22:39.656Z,11.97
2023-02-12T16:25:42.505Z,10.10
2023-02-12T16:28:48.374Z,12.10
2023-02-12T16:31:56.182Z,10.20
2023-02-12T16:35:02.310Z,11.93
2023-02-12T16:38:47.454Z,7.80
2023-02-12T16:41:56.358Z,19.23
2023-02-12T16:44:59.130Z,11.03
2023-02-12T16:48:04.938Z,8.53
2023-02-12T16:51:07.941Z,10.07
2023-02-12T16:54:31.238Z,9.00
2023-02-12T16:57:34.256Z,7.57
2023-02-12T17:00:37.059Z,9.10
2023-02-12T17:03:40.972Z,8.07
2023-02-12T17:06:44.092Z,8.83
2023-02-12T17:09:48.181Z,7.50
2023-02-12T17:12:53.162Z,13.13
2023-02-12T17:15:58.408Z,8.47
2023-02-12T17:19:02.212Z,8.73
2023-02-12T17:22:06.146Z,12.23
2023-02-12T17:25:11.504Z,11.73
2023-02-12T17:28:14.360Z,14.70
2023-02-12T17:31:17.241Z,10.27
2023-02-12T17:34:20.976Z,10.00
2023-02-12T17:37:25.400Z,9.23
2023-02-12T17:40:29.547Z,9.77
2023-02-12T17:43:32.319Z,11.40
2023-02-12T17:46:35.095Z,10.20
2023-02-12T17:49:39.851Z,8.13
2023-02-12T17:52:42.864Z,9.53
2023-02-12T17:55:48.106Z,9.30
2023-02-12T17:58:50.958Z,9.47
2023-02-12T18:01:54.144Z,8.77
2023-02-12T18:04:56.952Z,8.80
2023-02-12T18:07:59.783Z,8.73
2023-02-12T18:11:07.764Z,11.60
2023-02-12T18:14:12.444Z,8.40
2023-02-12T18:17:15.105Z,8.03
2023-02-12T18:20:17.981Z,7.60
2023-02-12T18:23:20.661Z,9.37
2023-02-12T18:26:24.721Z,14.00
2023-02-12T18:29:27.511Z,8.23
2023-02-12T18:32:30.221Z,9.20
2023-02-12T18:35:33.259Z,9.00
2023-02-12T18:38:37.137Z,9.90
2023-02-12T18:41:41.349Z,9.50
2023-02-12T18:44:44.081Z,8.30
2023-02-12T18:47:47.069Z,7.93
2023-02-12T18:50:51.752Z,7.97
2023-02-12T18:53:56.030Z,8.20
2023-02-12T18:57:00.342Z,9.67
2023-02-12T19:00:04.937Z,8.77
2023-02-12T19:03:07.826Z,9.13
2023-02-12T19:06:10.936Z,8.77
2023-02-12T19:09:16.584Z,9.33
2023-02-12T19:12:20.720Z,14.80
2023-02-12T19:15:23.488Z,8.90
2023-02-12T19:18:26.330Z,9.73
2023-02-12T19:21:29.166Z,9.17
2023-02-12T19:24:45.569Z,12.03
2023-02-12T19:27:50.170Z,12.03
2023-02-12T19:30:52.992Z,11.83
2023-02-12T19:33:59.183Z,10.23
2023-02-12T19:37:02.140Z,10.93
2023-02-12T19:40:05.126Z,9.30
2023-02-12T19:43:09.197Z,15.77
2023-02-12T19:46:13.555Z,15.23
2023-02-12T19:49:19.784Z,9.57
2023-02-12T19:52:22.461Z,8.87
2023-02-12T19:55:25.174Z,9.37
2023-02-12T19:58:31.176Z,10.37
2023-02-12T20:01:35.217Z,11.63
2023-02-12T20:04:37.931Z,10.17
2023-02-12T20:07:40.643Z,10.70
2023-02-12T20:10:43.365Z,10.57
2023-02-12T20:13:47.812Z,9.47
2023-02-12T20:16:51.879Z,11.03
2023-02-12T20:19:54.640Z,9.63
2023-02-12T20:22:57.487Z,12.10
2023-02-12T20:26:00.349Z,9.10
2023-02-12T20:29:05.759Z,9.17
2023-02-12T20:32:08.783Z,9.30
2023-02-12T20:35:11.869Z,8.97
2023-02-12T20:38:15.358Z,8.53
2023-02-12T20:41:18.113Z,9.83
2023-02-12T20:44:23.248Z,9.13
2023-02-12T20:47:28.805Z,8.33
2023-02-12T20:50:32.045Z,7.30
2023-02-12T20:53:35.049Z,8.03
2023-02-12T20:56:38.698Z,8.30
2023-02-12T20:59:42.884Z,7.83
2023-02-12T21:02:45.915Z,7.47
2023-02-12T21:05:48.691Z,8.30
2023-02-12T21:08:52.973Z,8.67
2023-02-12T21:11:58.178Z,8.30
2023-02-12T21:15:03.874Z,8.07
2023-02-12T21:18:06.692Z,7.97
2023-02-12T21:21:16.380Z,8.43
2023-02-12T21:24:21.622Z,8.40
2023-02-12T21:27:24.473Z,9.00
2023-02-12T21:30:29.266Z,9.33
2023-02-12T21:33:32.077Z,8.83
2023-02-12T21:36:37.392Z,8.07
2023-02-12T21:39:40.093Z,9.37
2023-02-12T21:42:42.782Z,8.60
2023-02-12T21:45:52.712Z,8.73
2023-02-12T21:48:55.924Z,9.30
2023-02-12T21:52:02.528Z,9.00
2023-02-12T21:55:05.513Z,9.60
2023-02-12T21:58:08.221Z,9.43
2023-02-12T22:01:13.972Z,9.77
2023-02-12T22:04:18.289Z,9.67
2023-02-12T22:07:21.020Z,10.13
2023-02-12T22:10:23.674Z,10.90
2023-02-12T22:13:26.343Z,9.63
2023-02-12T22:16:30.456Z,10.10
2023-02-12T22:19:33.297Z,11.97
2023-02-12T22:22:36.200Z,12.03
2023-02-12T22:25:39.304Z,11.60
2023-02-12T22:28:43.326Z,11.57
2023-02-12T22:31:48.340Z,10.93
2023-02-12T22:34:51.128Z,11.00
2023-02-12T22:37:53.801Z,12.03
2023-02-12T22:40:56.762Z,11.83
2023-02-12T22:44:00.118Z,11.70
2023-02-12T22:47:05.282Z,12.10
2023-02-12T22:50:08.799Z,12.23
2023-02-12T22:53:11.477Z,11.23
2023-02-12T22:56:14.348Z,12.00
2023-02-12T22:59:17.286Z,13.90
2023-02-12T23:02:21.604Z,13.10
2023-02-12T23:05:24.296Z,16.33
2023-02-12T23:08:27.047Z,16.27
2023-02-12T23:11:31.669Z,15.33
2023-02-12T23:14:36.093Z,17.27
2023-02-12T23:17:40.163Z,15.90
2023-02-12T23:20:42.825Z,15.87
2023-02-12T23:23:45.516Z,16.13
2023-02-12T23:26:48.169Z,16.23
2023-02-12T23:29:50.833Z,16.13
2023-02-12T23:32:55.139Z,16.57
2023-02-12T23:35:57.835Z,13.87
2023-02-12T23:39:00.505Z,16.53
2023-02-12T23:42:03.762Z,16.53
2023-02-12T23:45:06.829Z,17.50
2023-02-12T23:48:11.076Z,15.93
2023-02-12T23:51:13.832Z,17.07
2023-02-12T23:54:16.597Z,16.60
2023-02-12T23:57:19.277Z,16.13
